sensor_id;sensor_type;location;lat;lon;timestamp;P1;durP1;ratioP1;P2;durP2;ratioP2
14251;SDS011;7210;51.502;10.722;2023-01-04T00:00:05;6.53;;;5.53;;
14251;SDS011;7210;51.502;10.722;2023-01-04T00:02:34;8.73;;;6.07;;
14251;SDS011;7210;51.502;10.722;2023-01-04T00:05:02;7.27;;;6.00;;
14251;SDS011;7210;51.502;10.722;2023-01-04T00:07:31;7.63;;;5.87;;
14251;SDS011;7210;51.502;10.722;2023-01-04T00:09:58;6.63;;;5.83;;
14251;SDS011;7210;51.502;10.722;2023-01-04T00:12:25;7.93;;;5.80;;
14251;SDS011;7210;51.502;10.722;2023-01-04T00:14:52;8.17;;;6.47;;
14251;SDS011;7210;51.502;10.722;2023-01-04T00:17:19;7.50;;;5.73;;
14251;SDS011;7210;51.502;10.722;2023-01-04T00:19:49;8.83;;;6.13;;
14251;SDS011;7210;51.502;10.722;2023-01-04T00:22:26;7.47;;;5.57;;
14251;SDS011;7210;51.502;10.722;2023-01-04T00:24:55;7.50;;;5.93;;
14251;SDS011;7210;51.502;10.722;2023-01-04T00:27:31;9.20;;;6.10;;
14251;SDS011;7210;51.502;10.722;2023-01-04T00:29:58;9.27;;;6.27;;
14251;SDS011;7210;51.502;10.722;2023-01-04T00:32:25;9.73;;;7.30;;
14251;SDS011;7210;51.502;10.722;2023-01-04T00:34:52;8.77;;;6.13;;
14251;SDS011;7210;51.502;10.722;2023-01-04T00:37:19;9.77;;;6.83;;
14251;SDS011;7210;51.502;10.722;2023-01-04T00:39:48;8.10;;;6.50;;
14251;SDS011;7210;51.502;10.722;2023-01-04T00:42:15;10.20;;;6.87;;
14251;SDS011;7210;51.502;10.722;2023-01-04T00:44:42;8.67;;;6.70;;
14251;SDS011;7210;51.502;10.722;2023-01-04T00:47:09;9.97;;;6.10;;
14251;SDS011;7210;51.502;10.722;2023-01-04T00:49:36;10.23;;;6.80;;
14251;SDS011;7210;51.502;10.722;2023-01-04T00:52:03;7.07;;;5.93;;
14251;SDS011;7210;51.502;10.722;2023-01-04T00:54:32;9.40;;;6.47;;
14251;SDS011;7210;51.502;10.722;2023-01-04T00:57:00;9.50;;;6.23;;
14251;SDS011;7210;51.502;10.722;2023-01-04T00:59:29;7.27;;;5.83;;
14251;SDS011;7210;51.502;10.722;2023-01-04T01:01:56;7.30;;;5.60;;
14251;SDS011;7210;51.502;10.722;2023-01-04T01:04:23;9.37;;;6.30;;
14251;SDS011;7210;51.502;10.722;2023-01-04T01:06:51;7.90;;;6.53;;
14251;SDS011;7210;51.502;10.722;2023-01-04T01:09:18;9.10;;;6.90;;
14251;SDS011;7210;51.502;10.722;2023-01-04T01:11:47;10.87;;;6.33;;
14251;SDS011;7210;51.502;10.722;2023-01-04T01:14:16;7.87;;;5.77;;
14251;SDS011;7210;51.502;10.722;2023-01-04T01:16:49;7.93;;;6.40;;
14251;SDS011;7210;51.502;10.722;2023-01-04T01:19:17;8.70;;;6.37;;
14251;SDS011;7210;51.502;10.722;2023-01-04T01:21:44;10.37;;;6.77;;
14251;SDS011;7210;51.502;10.722;2023-01-04T01:24:14;10.50;;;6.50;;
14251;SDS011;7210;51.502;10.722;2023-01-04T01:26:55;8.40;;;6.57;;
14251;SDS011;7210;51.502;10.722;2023-01-04T01:29:24;8.60;;;6.67;;
14251;SDS011;7210;51.502;10.722;2023-01-04T01:31:55;7.07;;;6.17;;
14251;SDS011;7210;51.502;10.722;2023-01-04T01:34:22;10.87;;;6.00;;
14251;SDS011;7210;51.502;10.722;2023-01-04T01:36:49;9.73;;;6.20;;
14251;SDS011;7210;51.502;10.722;2023-01-04T01:39:16;7.57;;;6.20;;
14251;SDS011;7210;51.502;10.722;2023-01-04T01:41:43;8.43;;;6.50;;
14251;SDS011;7210;51.502;10.722;2023-01-04T01:47:30;8.20;;;6.37;;
14251;SDS011;7210;51.502;10.722;2023-01-04T01:50:13;9.07;;;6.37;;
14251;SDS011;7210;51.502;10.722;2023-01-04T01:52:48;9.27;;;6.50;;
14251;SDS011;7210;51.502;10.722;2023-01-04T01:55:19;9.23;;;6.40;;
14251;SDS011;7210;51.502;10.722;2023-01-04T01:57:47;8.30;;;5.97;;
14251;SDS011;7210;51.502;10.722;2023-01-04T02:00:21;12.67;;;6.40;;
14251;SDS011;7210;51.502;10.722;2023-01-04T02:02:51;8.23;;;6.37;;
14251;SDS011;7210;51.502;10.722;2023-01-04T02:05:28;6.43;;;5.80;;
14251;SDS011;7210;51.502;10.722;2023-01-04T02:08:01;10.33;;;6.40;;
14251;SDS011;7210;51.502;10.722;2023-01-04T02:10:30;6.80;;;5.87;;
14251;SDS011;7210;51.502;10.722;2023-01-04T02:13:01;9.93;;;7.50;;
14251;SDS011;7210;51.502;10.722;2023-01-04T02:15:38;6.47;;;5.73;;
14251;SDS011;7210;51.502;10.722;2023-01-04T02:18:27;7.93;;;6.20;;
14251;SDS011;7210;51.502;10.722;2023-01-04T02:21:04;9.37;;;6.27;;
14251;SDS011;7210;51.502;10.722;2023-01-04T02:33:42;6.43;;;5.50;;
14251;SDS011;7210;51.502;10.722;2023-01-04T02:36:18;7.77;;;5.83;;
14251;SDS011;7210;51.502;10.722;2023-01-04T02:39:00;8.57;;;6.07;;
14251;SDS011;7210;51.502;10.722;2023-01-04T02:41:40;10.20;;;5.80;;
14251;SDS011;7210;51.502;10.722;2023-01-04T02:44:18;9.73;;;5.77;;
14251;SDS011;7210;51.502;10.722;2023-01-04T02:47:16;8.23;;;5.00;;
14251;SDS011;7210;51.502;10.722;2023-01-04T02:50:08;6.90;;;5.10;;
14251;SDS011;7210;51.502;10.722;2023-01-04T02:53:07;6.80;;;5.20;;
14251;SDS011;7210;51.502;10.722;2023-01-04T02:55:43;8.63;;;5.37;;
14251;SDS011;7210;51.502;10.722;2023-01-04T02:58:23;6.20;;;5.13;;
14251;SDS011;7210;51.502;10.722;2023-01-04T03:01:21;11.73;;;4.83;;
14251;SDS011;7210;51.502;10.722;2023-01-04T03:04:24;9.20;;;4.67;;
14251;SDS011;7210;51.502;10.722;2023-01-04T03:07:26;8.33;;;4.50;;
14251;SDS011;7210;51.502;10.722;2023-01-04T03:13:22;7.90;;;4.50;;
14251;SDS011;7210;51.502;10.722;2023-01-04T03:15:56;9.57;;;4.67;;
14251;SDS011;7210;51.502;10.722;2023-01-04T03:18:30;7.13;;;4.33;;
14251;SDS011;7210;51.502;10.722;2023-01-04T03:21:04;6.20;;;4.23;;
14251;SDS011;7210;51.502;10.722;2023-01-04T03:23:37;6.87;;;4.33;;
14251;SDS011;7210;51.502;10.722;2023-01-04T03:26:24;8.20;;;4.20;;
14251;SDS011;7210;51.502;10.722;2023-01-04T03:29:16;6.20;;;4.60;;
14251;SDS011;7210;51.502;10.722;2023-01-04T03:32:08;8.03;;;4.30;;
14251;SDS011;7210;51.502;10.722;2023-01-04T03:34:56;10.23;;;4.10;;
14251;SDS011;7210;51.502;10.722;2023-01-04T03:37:57;7.37;;;4.13;;
14251;SDS011;7210;51.502;10.722;2023-01-04T03:40:53;7.37;;;4.30;;
14251;SDS011;7210;51.502;10.722;2023-01-04T03:43:45;8.33;;;4.33;;
14251;SDS011;7210;51.502;10.722;2023-01-04T03:46:42;6.20;;;3.93;;
14251;SDS011;7210;51.502;10.722;2023-01-04T03:49:35;7.83;;;4.10;;
14251;SDS011;7210;51.502;10.722;2023-01-04T03:52:10;5.30;;;3.93;;
14251;SDS011;7210;51.502;10.722;2023-01-04T03:54:43;7.13;;;4.10;;
14251;SDS011;7210;51.502;10.722;2023-01-04T03:57:14;6.57;;;4.10;;
14251;SDS011;7210;51.502;10.722;2023-01-04T03:59:44;6.17;;;3.40;;
14251;SDS011;7210;51.502;10.722;2023-01-04T04:02:21;8.03;;;3.80;;
14251;SDS011;7210;51.502;10.722;2023-01-04T04:04:53;7.57;;;4.20;;
14251;SDS011;7210;51.502;10.722;2023-01-04T04:07:38;5.07;;;3.30;;
14251;SDS011;7210;51.502;10.722;2023-01-04T04:10:24;6.23;;;3.50;;
14251;SDS011;7210;51.502;10.722;2023-01-04T04:12:51;4.63;;;3.20;;
14251;SDS011;7210;51.502;10.722;2023-01-04T04:15:18;5.37;;;3.03;;
14251;SDS011;7210;51.502;10.722;2023-01-04T04:17:46;4.90;;;3.13;;
14251;SDS011;7210;51.502;10.722;2023-01-04T04:20:13;7.50;;;3.10;;
14251;SDS011;7210;51.502;10.722;2023-01-04T04:22:45;5.23;;;2.80;;
14251;SDS011;7210;51.502;10.722;2023-01-04T04:25:12;6.80;;;2.60;;
14251;SDS011;7210;51.502;10.722;2023-01-04T04:27:40;4.27;;;2.13;;
14251;SDS011;7210;51.502;10.722;2023-01-04T04:30:08;3.50;;;1.80;;
14251;SDS011;7210;51.502;10.722;2023-01-04T04:32:36;5.17;;;1.80;;
14251;SDS011;7210;51.502;10.722;2023-01-04T04:35:03;7.13;;;2.20;;
14251;SDS011;7210;51.502;10.722;2023-01-04T04:37:31;3.33;;;1.70;;
14251;SDS011;7210;51.502;10.722;2023-01-04T04:39:59;4.00;;;1.83;;
14251;SDS011;7210;51.502;10.722;2023-01-04T04:42:26;3.70;;;2.03;;
14251;SDS011;7210;51.502;10.722;2023-01-04T04:44:54;5.57;;;1.80;;
14251;SDS011;7210;51.502;10.722;2023-01-04T04:47:21;3.77;;;1.73;;
14251;SDS011;7210;51.502;10.722;2023-01-04T04:49:48;8.07;;;2.47;;
14251;SDS011;7210;51.502;10.722;2023-01-04T04:52:16;3.40;;;1.47;;
14251;SDS011;7210;51.502;10.722;2023-01-04T04:54:43;5.93;;;1.80;;
14251;SDS011;7210;51.502;10.722;2023-01-04T04:57:10;3.43;;;1.60;;
14251;SDS011;7210;51.502;10.722;2023-01-04T04:59:37;2.33;;;1.40;;
14251;SDS011;7210;51.502;10.722;2023-01-04T05:02:16;5.80;;;2.30;;
14251;SDS011;7210;51.502;10.722;2023-01-04T05:04:45;6.97;;;1.60;;
14251;SDS011;7210;51.502;10.722;2023-01-04T05:07:14;2.03;;;1.37;;
14251;SDS011;7210;51.502;10.722;2023-01-04T05:09:43;3.90;;;1.90;;
14251;SDS011;7210;51.502;10.722;2023-01-04T05:12:12;2.87;;;2.57;;
14251;SDS011;7210;51.502;10.722;2023-01-04T05:14:56;4.77;;;1.87;;
14251;SDS011;7210;51.502;10.722;2023-01-04T05:17:28;6.00;;;1.73;;
14251;SDS011;7210;51.502;10.722;2023-01-04T05:19:55;4.77;;;2.00;;
14251;SDS011;7210;51.502;10.722;2023-01-04T05:22:23;3.80;;;1.60;;
14251;SDS011;7210;51.502;10.722;2023-01-04T05:24:50;3.67;;;1.70;;
14251;SDS011;7210;51.502;10.722;2023-01-04T05:27:17;2.87;;;1.97;;
14251;SDS011;7210;51.502;10.722;2023-01-04T05:29:44;2.47;;;1.63;;
14251;SDS011;7210;51.502;10.722;2023-01-04T05:32:30;4.37;;;1.90;;
14251;SDS011;7210;51.502;10.722;2023-01-04T05:34:57;5.50;;;1.93;;
14251;SDS011;7210;51.502;10.722;2023-01-04T05:37:25;4.67;;;1.70;;
14251;SDS011;7210;51.502;10.722;2023-01-04T05:39:52;7.00;;;2.00;;
14251;SDS011;7210;51.502;10.722;2023-01-04T05:42:19;4.33;;;2.03;;
14251;SDS011;7210;51.502;10.722;2023-01-04T05:44:52;4.30;;;2.27;;
14251;SDS011;7210;51.502;10.722;2023-01-04T05:47:21;3.53;;;2.10;;
14251;SDS011;7210;51.502;10.722;2023-01-04T05:49:51;3.80;;;2.20;;
14251;SDS011;7210;51.502;10.722;2023-01-04T05:52:21;3.67;;;2.40;;
14251;SDS011;7210;51.502;10.722;2023-01-04T05:54:48;2.77;;;1.73;;
14251;SDS011;7210;51.502;10.722;2023-01-04T05:57:15;6.73;;;2.20;;
14251;SDS011;7210;51.502;10.722;2023-01-04T05:59:42;4.40;;;3.40;;
14251;SDS011;7210;51.502;10.722;2023-01-04T06:02:14;2.50;;;2.00;;
14251;SDS011;7210;51.502;10.722;2023-01-04T06:04:45;3.23;;;2.13;;
14251;SDS011;7210;51.502;10.722;2023-01-04T06:07:14;5.37;;;1.90;;
14251;SDS011;7210;51.502;10.722;2023-01-04T06:09:41;3.93;;;2.53;;
14251;SDS011;7210;51.502;10.722;2023-01-04T06:12:09;4.67;;;2.90;;
14251;SDS011;7210;51.502;10.722;2023-01-04T06:14:39;5.73;;;2.23;;
14251;SDS011;7210;51.502;10.722;2023-01-04T06:17:15;3.73;;;2.27;;
14251;SDS011;7210;51.502;10.722;2023-01-04T06:19:42;3.07;;;2.00;;
14251;SDS011;7210;51.502;10.722;2023-01-04T06:22:16;3.63;;;2.20;;
14251;SDS011;7210;51.502;10.722;2023-01-04T06:24:44;3.07;;;2.10;;
14251;SDS011;7210;51.502;10.722;2023-01-04T06:27:11;2.77;;;2.13;;
14251;SDS011;7210;51.502;10.722;2023-01-04T06:29:39;2.80;;;2.10;;
14251;SDS011;7210;51.502;10.722;2023-01-04T06:32:06;3.23;;;2.03;;
14251;SDS011;7210;51.502;10.722;2023-01-04T06:34:39;2.27;;;1.90;;
14251;SDS011;7210;51.502;10.722;2023-01-04T06:37:16;2.80;;;1.90;;
14251;SDS011;7210;51.502;10.722;2023-01-04T06:39:44;2.90;;;2.00;;
14251;SDS011;7210;51.502;10.722;2023-01-04T06:42:21;4.03;;;2.20;;
14251;SDS011;7210;51.502;10.722;2023-01-04T06:45:06;3.40;;;2.03;;
14251;SDS011;7210;51.502;10.722;2023-01-04T06:47:34;2.37;;;1.90;;
14251;SDS011;7210;51.502;10.722;2023-01-04T06:50:03;2.93;;;2.00;;
14251;SDS011;7210;51.502;10.722;2023-01-04T06:52:32;2.90;;;1.80;;
14251;SDS011;7210;51.502;10.722;2023-01-04T06:55:03;2.10;;;1.70;;
14251;SDS011;7210;51.502;10.722;2023-01-04T06:57:39;2.20;;;1.93;;
14251;SDS011;7210;51.502;10.722;2023-01-04T07:00:07;2.17;;;1.87;;
14251;SDS011;7210;51.502;10.722;2023-01-04T07:02:39;2.37;;;1.70;;
14251;SDS011;7210;51.502;10.722;2023-01-04T07:05:09;3.03;;;1.97;;
14251;SDS011;7210;51.502;10.722;2023-01-04T07:07:38;2.10;;;1.70;;
14251;SDS011;7210;51.502;10.722;2023-01-04T07:10:06;2.27;;;1.70;;
14251;SDS011;7210;51.502;10.722;2023-01-04T07:12:34;2.30;;;1.73;;
14251;SDS011;7210;51.502;10.722;2023-01-04T07:15:04;2.37;;;1.90;;
14251;SDS011;7210;51.502;10.722;2023-01-04T07:17:39;3.43;;;2.13;;
14251;SDS011;7210;51.502;10.722;2023-01-04T07:20:06;2.53;;;2.10;;
14251;SDS011;7210;51.502;10.722;2023-01-04T07:22:34;2.47;;;2.00;;
14251;SDS011;7210;51.502;10.722;2023-01-04T07:25:04;2.07;;;1.83;;
14251;SDS011;7210;51.502;10.722;2023-01-04T07:27:32;4.10;;;2.03;;
14251;SDS011;7210;51.502;10.722;2023-01-04T07:29:59;3.37;;;2.07;;
14251;SDS011;7210;51.502;10.722;2023-01-04T07:32:27;2.53;;;2.33;;
14251;SDS011;7210;51.502;10.722;2023-01-04T07:34:54;2.60;;;2.20;;
14251;SDS011;7210;51.502;10.722;2023-01-04T07:37:21;3.60;;;2.30;;
14251;SDS011;7210;51.502;10.722;2023-01-04T07:39:48;3.27;;;2.43;;
14251;SDS011;7210;51.502;10.722;2023-01-04T07:42:17;2.87;;;2.43;;
14251;SDS011;7210;51.502;10.722;2023-01-04T07:44:47;2.47;;;1.90;;
14251;SDS011;7210;51.502;10.722;2023-01-04T07:47:14;1.87;;;1.70;;
14251;SDS011;7210;51.502;10.722;2023-01-04T07:49:41;3.30;;;2.40;;
14251;SDS011;7210;51.502;10.722;2023-01-04T07:52:08;3.00;;;2.07;;
14251;SDS011;7210;51.502;10.722;2023-01-04T07:54:35;3.37;;;2.07;;
14251;SDS011;7210;51.502;10.722;2023-01-04T07:57:09;3.83;;;2.33;;
14251;SDS011;7210;51.502;10.722;2023-01-04T07:59:37;3.07;;;2.37;;
14251;SDS011;7210;51.502;10.722;2023-01-04T08:02:05;3.37;;;2.30;;
14251;SDS011;7210;51.502;10.722;2023-01-04T08:04:35;2.43;;;2.10;;
14251;SDS011;7210;51.502;10.722;2023-01-04T08:07:02;4.03;;;2.53;;
14251;SDS011;7210;51.502;10.722;2023-01-04T08:09:30;2.43;;;2.10;;
14251;SDS011;7210;51.502;10.722;2023-01-04T08:11:57;3.23;;;2.20;;
14251;SDS011;7210;51.502;10.722;2023-01-04T08:14:24;4.03;;;2.57;;
14251;SDS011;7210;51.502;10.722;2023-01-04T08:16:53;4.97;;;4.40;;
14251;SDS011;7210;51.502;10.722;2023-01-04T08:19:21;2.70;;;2.40;;
14251;SDS011;7210;51.502;10.722;2023-01-04T08:21:48;3.60;;;2.80;;
14251;SDS011;7210;51.502;10.722;2023-01-04T08:24:16;3.03;;;2.47;;
14251;SDS011;7210;51.502;10.722;2023-01-04T08:26:45;3.13;;;2.00;;
14251;SDS011;7210;51.502;10.722;2023-01-04T08:29:12;4.50;;;2.13;;
14251;SDS011;7210;51.502;10.722;2023-01-04T08:31:40;2.57;;;2.10;;
14251;SDS011;7210;51.502;10.722;2023-01-04T08:34:10;2.63;;;1.90;;
14251;SDS011;7210;51.502;10.722;2023-01-04T08:36:43;2.50;;;2.23;;
14251;SDS011;7210;51.502;10.722;2023-01-04T08:39:13;3.80;;;2.20;;
14251;SDS011;7210;51.502;10.722;2023-01-04T08:41:40;2.63;;;2.17;;
14251;SDS011;7210;51.502;10.722;2023-01-04T08:44:18;3.03;;;1.83;;
14251;SDS011;7210;51.502;10.722;2023-01-04T08:46:47;2.63;;;2.13;;
14251;SDS011;7210;51.502;10.722;2023-01-04T08:49:17;2.33;;;1.93;;
14251;SDS011;7210;51.502;10.722;2023-01-04T08:51:45;6.70;;;2.17;;
14251;SDS011;7210;51.502;10.722;2023-01-04T08:54:12;2.43;;;2.07;;
14251;SDS011;7210;51.502;10.722;2023-01-04T08:56:40;3.90;;;2.10;;
14251;SDS011;7210;51.502;10.722;2023-01-04T08:59:09;1.93;;;1.83;;
14251;SDS011;7210;51.502;10.722;2023-01-04T09:01:37;3.27;;;2.17;;
14251;SDS011;7210;51.502;10.722;2023-01-04T09:04:06;3.63;;;2.17;;
14251;SDS011;7210;51.502;10.722;2023-01-04T09:06:40;2.50;;;2.30;;
14251;SDS011;7210;51.502;10.722;2023-01-04T09:09:09;4.00;;;2.47;;
14251;SDS011;7210;51.502;10.722;2023-01-04T09:11:36;2.97;;;2.40;;
14251;SDS011;7210;51.502;10.722;2023-01-04T09:14:04;3.50;;;2.07;;
14251;SDS011;7210;51.502;10.722;2023-01-04T09:16:33;3.07;;;2.33;;
14251;SDS011;7210;51.502;10.722;2023-01-04T09:19:02;3.43;;;2.27;;
14251;SDS011;7210;51.502;10.722;2023-01-04T09:21:30;3.80;;;2.30;;
14251;SDS011;7210;51.502;10.722;2023-01-04T09:24:04;3.07;;;2.27;;
14251;SDS011;7210;51.502;10.722;2023-01-04T09:26:32;3.97;;;2.70;;
14251;SDS011;7210;51.502;10.722;2023-01-04T09:28:59;3.17;;;2.60;;
14251;SDS011;7210;51.502;10.722;2023-01-04T09:31:27;2.93;;;2.40;;
14251;SDS011;7210;51.502;10.722;2023-01-04T09:33:55;3.23;;;2.40;;
14251;SDS011;7210;51.502;10.722;2023-01-04T09:36:23;4.97;;;2.73;;
14251;SDS011;7210;51.502;10.722;2023-01-04T09:38:51;6.27;;;3.33;;
14251;SDS011;7210;51.502;10.722;2023-01-04T09:41:21;2.80;;;2.60;;
14251;SDS011;7210;51.502;10.722;2023-01-04T09:43:53;3.60;;;2.90;;
14251;SDS011;7210;51.502;10.722;2023-01-04T09:46:28;3.33;;;2.93;;
14251;SDS011;7210;51.502;10.722;2023-01-04T09:49:04;3.13;;;2.83;;
14251;SDS011;7210;51.502;10.722;2023-01-04T09:51:44;3.03;;;2.73;;
14251;SDS011;7210;51.502;10.722;2023-01-04T09:54:26;3.30;;;3.00;;
14251;SDS011;7210;51.502;10.722;2023-01-04T09:57:03;3.75;;;3.05;;
14251;SDS011;7210;51.502;10.722;2023-01-04T09:59:31;6.00;;;3.33;;
14251;SDS011;7210;51.502;10.722;2023-01-04T10:02:00;3.10;;;2.80;;
14251;SDS011;7210;51.502;10.722;2023-01-04T10:04:42;3.23;;;2.93;;
14251;SDS011;7210;51.502;10.722;2023-01-04T10:07:16;4.33;;;3.17;;
14251;SDS011;7210;51.502;10.722;2023-01-04T10:09:52;4.55;;;3.38;;
14251;SDS011;7210;51.502;10.722;2023-01-04T10:12:25;4.70;;;3.33;;
14251;SDS011;7210;51.502;10.722;2023-01-04T10:15:17;3.17;;;2.87;;
14251;SDS011;7210;51.502;10.722;2023-01-04T10:18:02;3.37;;;2.80;;
14251;SDS011;7210;51.502;10.722;2023-01-04T10:23:59;5.27;;;3.17;;
14251;SDS011;7210;51.502;10.722;2023-01-04T10:26:50;5.43;;;3.50;;
14251;SDS011;7210;51.502;10.722;2023-01-04T10:29:39;3.20;;;2.90;;
14251;SDS011;7210;51.502;10.722;2023-01-04T10:32:29;3.30;;;3.00;;
14251;SDS011;7210;51.502;10.722;2023-01-04T10:35:12;3.30;;;3.00;;
14251;SDS011;7210;51.502;10.722;2023-01-04T10:37:46;3.93;;;3.00;;
14251;SDS011;7210;51.502;10.722;2023-01-04T10:40:18;5.40;;;3.70;;
14251;SDS011;7210;51.502;10.722;2023-01-04T10:42:48;3.80;;;3.07;;
14251;SDS011;7210;51.502;10.722;2023-01-04T10:45:29;5.60;;;4.50;;
14251;SDS011;7210;51.502;10.722;2023-01-04T10:48:06;5.40;;;4.03;;
14251;SDS011;7210;51.502;10.722;2023-01-04T10:50:43;2.87;;;2.67;;
14251;SDS011;7210;51.502;10.722;2023-01-04T10:53:21;6.70;;;5.17;;
14251;SDS011;7210;51.502;10.722;2023-01-04T10:55:58;4.80;;;3.80;;
14251;SDS011;7210;51.502;10.722;2023-01-04T10:58:35;3.50;;;3.20;;
14251;SDS011;7210;51.502;10.722;2023-01-04T11:01:14;4.00;;;3.60;;
14251;SDS011;7210;51.502;10.722;2023-01-04T11:03:48;3.63;;;3.10;;
14251;SDS011;7210;51.502;10.722;2023-01-04T11:06:25;3.33;;;2.90;;
14251;SDS011;7210;51.502;10.722;2023-01-04T11:09:00;3.30;;;2.83;;
14251;SDS011;7210;51.502;10.722;2023-01-04T11:11:34;2.70;;;2.50;;
14251;SDS011;7210;51.502;10.722;2023-01-04T11:14:07;3.90;;;2.50;;
14251;SDS011;7210;51.502;10.722;2023-01-04T11:16:37;2.80;;;2.50;;
14251;SDS011;7210;51.502;10.722;2023-01-04T11:19:10;3.15;;;2.90;;
14251;SDS011;7210;51.502;10.722;2023-01-04T11:21:38;3.30;;;2.58;;
14251;SDS011;7210;51.502;10.722;2023-01-04T11:24:13;2.70;;;2.30;;
14251;SDS011;7210;51.502;10.722;2023-01-04T11:26:45;3.72;;;2.90;;
14251;SDS011;7210;51.502;10.722;2023-01-04T11:29:21;2.57;;;2.30;;
14251;SDS011;7210;51.502;10.722;2023-01-04T11:32:09;3.10;;;2.77;;
14251;SDS011;7210;51.502;10.722;2023-01-04T11:34:46;2.43;;;2.23;;
14251;SDS011;7210;51.502;10.722;2023-01-04T11:37:26;3.03;;;2.17;;
14251;SDS011;7210;51.502;10.722;2023-01-04T11:40:18;2.10;;;1.90;;
14251;SDS011;7210;51.502;10.722;2023-01-04T11:42:51;4.33;;;3.00;;
14251;SDS011;7210;51.502;10.722;2023-01-04T11:45:37;3.80;;;2.17;;
14251;SDS011;7210;51.502;10.722;2023-01-04T11:48:07;2.47;;;2.27;;
14251;SDS011;7210;51.502;10.722;2023-01-04T11:50:41;2.47;;;2.00;;
14251;SDS011;7210;51.502;10.722;2023-01-04T11:56:10;2.43;;;2.00;;
14251;SDS011;7210;51.502;10.722;2023-01-04T12:01:47;3.50;;;1.67;;
14251;SDS011;7210;51.502;10.722;2023-01-04T12:05:05;2.20;;;2.00;;
14251;SDS011;7210;51.502;10.722;2023-01-04T12:07:45;1.70;;;1.60;;
14251;SDS011;7210;51.502;10.722;2023-01-04T12:10:18;2.63;;;1.60;;
14251;SDS011;7210;51.502;10.722;2023-01-04T12:12:50;1.80;;;1.50;;
14251;SDS011;7210;51.502;10.722;2023-01-04T12:15:20;3.03;;;1.70;;
14251;SDS011;7210;51.502;10.722;2023-01-04T12:18:01;1.50;;;1.40;;
14251;SDS011;7210;51.502;10.722;2023-01-04T12:20:39;2.63;;;1.80;;
14251;SDS011;7210;51.502;10.722;2023-01-04T12:23:07;2.03;;;1.60;;
14251;SDS011;7210;51.502;10.722;2023-01-04T12:25:39;1.70;;;1.40;;
14251;SDS011;7210;51.502;10.722;2023-01-04T12:28:30;2.03;;;1.40;;
14251;SDS011;7210;51.502;10.722;2023-01-04T12:33:56;2.63;;;1.80;;
14251;SDS011;7210;51.502;10.722;2023-01-04T12:36:55;2.87;;;1.50;;
14251;SDS011;7210;51.502;10.722;2023-01-04T12:39:27;1.70;;;1.53;;
14251;SDS011;7210;51.502;10.722;2023-01-04T12:42:16;1.50;;;1.40;;
14251;SDS011;7210;51.502;10.722;2023-01-04T12:44:57;1.93;;;1.30;;
14251;SDS011;7210;51.502;10.722;2023-01-04T12:47:46;2.23;;;1.50;;
14251;SDS011;7210;51.502;10.722;2023-01-04T12:53:57;1.50;;;1.27;;
14251;SDS011;7210;51.502;10.722;2023-01-04T12:59:53;10.37;;;5.80;;
14251;SDS011;7210;51.502;10.722;2023-01-04T13:02:23;2.43;;;1.70;;
14251;SDS011;7210;51.502;10.722;2023-01-04T13:04:54;6.73;;;4.53;;
14251;SDS011;7210;51.502;10.722;2023-01-04T13:07:25;6.90;;;5.37;;
14251;SDS011;7210;51.502;10.722;2023-01-04T13:09:58;1.77;;;1.60;;
14251;SDS011;7210;51.502;10.722;2023-01-04T13:12:45;3.57;;;3.17;;
14251;SDS011;7210;51.502;10.722;2023-01-04T13:15:37;1.80;;;1.60;;
14251;SDS011;7210;51.502;10.722;2023-01-04T13:18:33;1.87;;;1.63;;
14251;SDS011;7210;51.502;10.722;2023-01-04T13:21:09;2.97;;;1.50;;
14251;SDS011;7210;51.502;10.722;2023-01-04T13:23:44;2.40;;;1.40;;
14251;SDS011;7210;51.502;10.722;2023-01-04T13:26:31;1.70;;;1.10;;
14251;SDS011;7210;51.502;10.722;2023-01-04T13:29:07;2.57;;;1.53;;
14251;SDS011;7210;51.502;10.722;2023-01-04T13:31:50;3.37;;;1.40;;
14251;SDS011;7210;51.502;10.722;2023-01-04T13:34:23;1.47;;;1.30;;
14251;SDS011;7210;51.502;10.722;2023-01-04T13:37:01;2.43;;;1.43;;
14251;SDS011;7210;51.502;10.722;2023-01-04T13:39:46;1.93;;;1.30;;
14251;SDS011;7210;51.502;10.722;2023-01-04T13:42:21;2.17;;;1.17;;
14251;SDS011;7210;51.502;10.722;2023-01-04T13:48:16;1.47;;;1.20;;
14251;SDS011;7210;51.502;10.722;2023-01-04T13:50:57;1.17;;;1.07;;
14251;SDS011;7210;51.502;10.722;2023-01-04T13:53:27;1.70;;;1.10;;
14251;SDS011;7210;51.502;10.722;2023-01-04T13:55:57;1.10;;;1.00;;
14251;SDS011;7210;51.502;10.722;2023-01-04T13:58:28;2.73;;;1.33;;
14251;SDS011;7210;51.502;10.722;2023-01-04T14:00:57;1.20;;;1.10;;
14251;SDS011;7210;51.502;10.722;2023-01-04T14:03:31;1.77;;;1.47;;
14251;SDS011;7210;51.502;10.722;2023-01-04T14:08:59;1.00;;;1.00;;
14251;SDS011;7210;51.502;10.722;2023-01-04T14:11:33;1.33;;;1.20;;
14251;SDS011;7210;51.502;10.722;2023-01-04T14:14:53;1.30;;;1.10;;
14251;SDS011;7210;51.502;10.722;2023-01-04T14:17:29;1.10;;;1.00;;
14251;SDS011;7210;51.502;10.722;2023-01-04T14:20:03;1.10;;;1.00;;
14251;SDS011;7210;51.502;10.722;2023-01-04T14:22:58;1.70;;;1.00;;
14251;SDS011;7210;51.502;10.722;2023-01-04T14:31:18;2.17;;;0.90;;
14251;SDS011;7210;51.502;10.722;2023-01-04T14:33:52;2.10;;;1.03;;
14251;SDS011;7210;51.502;10.722;2023-01-04T14:36:20;1.10;;;1.00;;
14251;SDS011;7210;51.502;10.722;2023-01-04T14:38:53;1.27;;;1.00;;
14251;SDS011;7210;51.502;10.722;2023-01-04T14:41:28;2.10;;;1.00;;
14251;SDS011;7210;51.502;10.722;2023-01-04T14:44:04;1.50;;;1.40;;
14251;SDS011;7210;51.502;10.722;2023-01-04T14:46:40;1.90;;;1.10;;
14251;SDS011;7210;51.502;10.722;2023-01-04T14:49:11;0.90;;;0.90;;
14251;SDS011;7210;51.502;10.722;2023-01-04T14:51:40;1.07;;;0.90;;
14251;SDS011;7210;51.502;10.722;2023-01-04T14:54:11;1.00;;;1.00;;
14251;SDS011;7210;51.502;10.722;2023-01-04T14:56:45;1.70;;;0.90;;
14251;SDS011;7210;51.502;10.722;2023-01-04T14:59:12;1.07;;;0.80;;
14251;SDS011;7210;51.502;10.722;2023-01-04T15:01:41;2.23;;;1.07;;
14251;SDS011;7210;51.502;10.722;2023-01-04T15:04:08;1.23;;;0.97;;
14251;SDS011;7210;51.502;10.722;2023-01-04T15:06:35;0.80;;;0.70;;
14251;SDS011;7210;51.502;10.722;2023-01-04T15:09:11;0.87;;;0.83;;
14251;SDS011;7210;51.502;10.722;2023-01-04T15:11:38;0.73;;;0.73;;
14251;SDS011;7210;51.502;10.722;2023-01-04T15:14:09;0.90;;;0.70;;
14251;SDS011;7210;51.502;10.722;2023-01-04T15:16:36;0.70;;;0.70;;
14251;SDS011;7210;51.502;10.722;2023-01-04T15:19:10;0.90;;;0.80;;
14251;SDS011;7210;51.502;10.722;2023-01-04T15:21:38;1.43;;;0.80;;
14251;SDS011;7210;51.502;10.722;2023-01-04T15:24:05;1.20;;;0.77;;
14251;SDS011;7210;51.502;10.722;2023-01-04T15:26:33;0.83;;;0.80;;
14251;SDS011;7210;51.502;10.722;2023-01-04T15:29:03;1.90;;;0.87;;
14251;SDS011;7210;51.502;10.722;2023-01-04T15:31:33;0.83;;;0.83;;
14251;SDS011;7210;51.502;10.722;2023-01-04T15:34:01;1.47;;;0.80;;
14251;SDS011;7210;51.502;10.722;2023-01-04T15:36:30;1.20;;;0.90;;
14251;SDS011;7210;51.502;10.722;2023-01-04T15:39:03;1.08;;;0.90;;
14251;SDS011;7210;51.502;10.722;2023-01-04T15:41:30;1.13;;;1.07;;
14251;SDS011;7210;51.502;10.722;2023-01-04T15:44:21;1.37;;;0.80;;
14251;SDS011;7210;51.502;10.722;2023-01-04T15:46:49;1.50;;;0.80;;
14251;SDS011;7210;51.502;10.722;2023-01-04T15:49:17;1.43;;;0.80;;
14251;SDS011;7210;51.502;10.722;2023-01-04T15:51:46;0.80;;;0.80;;
14251;SDS011;7210;51.502;10.722;2023-01-04T15:54:13;0.90;;;0.90;;
14251;SDS011;7210;51.502;10.722;2023-01-04T15:56:41;0.97;;;0.80;;
14251;SDS011;7210;51.502;10.722;2023-01-04T15:59:09;0.87;;;0.70;;
14251;SDS011;7210;51.502;10.722;2023-01-04T16:01:39;1.20;;;0.90;;
14251;SDS011;7210;51.502;10.722;2023-01-04T16:04:07;0.70;;;0.70;;
14251;SDS011;7210;51.502;10.722;2023-01-04T16:06:39;1.17;;;0.80;;
14251;SDS011;7210;51.502;10.722;2023-01-04T16:09:10;1.30;;;0.90;;
14251;SDS011;7210;51.502;10.722;2023-01-04T16:11:38;1.00;;;0.90;;